sensor_id;sensor_type;location;lat;lon;timestamp;P1;durP1;ratioP1;P2;durP2;ratioP2
239;SDS011;104;53.590;10.004;2023-02-01T00:01:05;10.70;;;6.70;;
239;SDS011;104;53.590;10.004;2023-02-01T00:03:33;13.40;;;7.70;;
239;SDS011;104;53.590;10.004;2023-02-01T00:06:00;12.93;;;6.90;;
239;SDS011;104;53.590;10.004;2023-02-01T00:08:28;14.63;;;7.47;;
239;SDS011;104;53.590;10.004;2023-02-01T00:11:00;13.17;;;7.53;;
239;SDS011;104;53.590;10.004;2023-02-01T00:13:28;13.27;;;7.23;;
239;SDS011;104;53.590;10.004;2023-02-01T00:16:02;14.93;;;7.80;;
239;SDS011;104;53.590;10.004;2023-02-01T00:18:29;13.77;;;7.40;;
239;SDS011;104;53.590;10.004;2023-02-01T00:20:57;19.33;;;7.90;;
239;SDS011;104;53.590;10.004;2023-02-01T00:23:24;11.67;;;7.57;;
239;SDS011;104;53.590;10.004;2023-02-01T00:25:52;12.43;;;7.70;;
239;SDS011;104;53.590;10.004;2023-02-01T00:28:21;12.33;;;7.57;;
239;SDS011;104;53.590;10.004;2023-02-01T00:30:55;12.63;;;7.60;;
239;SDS011;104;53.590;10.004;2023-02-01T00:33:22;12.97;;;7.43;;
239;SDS011;104;53.590;10.004;2023-02-01T00:35:49;15.40;;;7.70;;
239;SDS011;104;53.590;10.004;2023-02-01T00:38:16;14.27;;;8.20;;
239;SDS011;104;53.590;10.004;2023-02-01T00:40:43;15.00;;;8.07;;
239;SDS011;104;53.590;10.004;2023-02-01T00:43:11;15.33;;;7.97;;
239;SDS011;104;53.590;10.004;2023-02-01T00:45:39;15.37;;;8.47;;
239;SDS011;104;53.590;10.004;2023-02-01T00:48:06;12.87;;;8.40;;
239;SDS011;104;53.590;10.004;2023-02-01T00:50:34;14.97;;;7.87;;
239;SDS011;104;53.590;10.004;2023-02-01T00:53:01;15.50;;;8.37;;
239;SDS011;104;53.590;10.004;2023-02-01T00:55:28;13.77;;;8.37;;
239;SDS011;104;53.590;10.004;2023-02-01T00:57:56;13.17;;;8.00;;
239;SDS011;104;53.590;10.004;2023-02-01T01:00:23;15.13;;;7.47;;
239;SDS011;104;53.590;10.004;2023-02-01T01:02:51;15.17;;;8.93;;
239;SDS011;104;53.590;10.004;2023-02-01T01:05:20;16.13;;;8.40;;
239;SDS011;104;53.590;10.004;2023-02-01T01:07:47;17.10;;;8.37;;
239;SDS011;104;53.590;10.004;2023-02-01T01:10:14;15.83;;;8.57;;
239;SDS011;104;53.590;10.004;2023-02-01T01:12:42;17.57;;;8.40;;
239;SDS011;104;53.590;10.004;2023-02-01T01:15:09;14.50;;;8.60;;
239;SDS011;104;53.590;10.004;2023-02-01T01:17:37;13.70;;;8.43;;
239;SDS011;104;53.590;10.004;2023-02-01T01:20:06;15.53;;;9.07;;
239;SDS011;104;53.590;10.004;2023-02-01T01:22:33;16.53;;;8.70;;
239;SDS011;104;53.590;10.004;2023-02-01T01:25:02;17.37;;;8.80;;
239;SDS011;104;53.590;10.004;2023-02-01T01:27:30;19.43;;;9.13;;
239;SDS011;104;53.590;10.004;2023-02-01T01:29:58;13.70;;;8.37;;
239;SDS011;104;53.590;10.004;2023-02-01T01:32:27;17.70;;;9.07;;
239;SDS011;104;53.590;10.004;2023-02-01T01:34:55;14.70;;;8.53;;
239;SDS011;104;53.590;10.004;2023-02-01T01:37:26;21.57;;;9.30;;
239;SDS011;104;53.590;10.004;2023-02-01T01:39:54;18.90;;;8.07;;
239;SDS011;104;53.590;10.004;2023-02-01T01:42:23;15.93;;;8.00;;
239;SDS011;104;53.590;10.004;2023-02-01T01:45:00;13.10;;;8.00;;
239;SDS011;104;53.590;10.004;2023-02-01T01:47:30;11.83;;;8.07;;
239;SDS011;104;53.590;10.004;2023-02-01T01:50:01;13.97;;;8.40;;
239;SDS011;104;53.590;10.004;2023-02-01T01:52:32;16.83;;;8.60;;
239;SDS011;104;53.590;10.004;2023-02-01T01:55:00;11.77;;;7.63;;
239;SDS011;104;53.590;10.004;2023-02-01T01:57:29;14.03;;;8.13;;
239;SDS011;104;53.590;10.004;2023-02-01T02:00:00;16.80;;;9.00;;
239;SDS011;104;53.590;10.004;2023-02-01T02:02:33;16.30;;;8.37;;
239;SDS011;104;53.590;10.004;2023-02-01T02:05:01;16.10;;;8.10;;
239;SDS011;104;53.590;10.004;2023-02-01T02:07:30;13.63;;;8.40;;
239;SDS011;104;53.590;10.004;2023-02-01T02:10:05;13.50;;;8.10;;
239;SDS011;104;53.590;10.004;2023-02-01T02:12:35;16.20;;;7.87;;
239;SDS011;104;53.590;10.004;2023-02-01T02:15:05;18.13;;;8.80;;
239;SDS011;104;53.590;10.004;2023-02-01T02:17:35;16.07;;;8.23;;
239;SDS011;104;53.590;10.004;2023-02-01T02:20:24;13.33;;;8.00;;
239;SDS011;104;53.590;10.004;2023-02-01T02:26:23;9.77;;;6.50;;
239;SDS011;104;53.590;10.004;2023-02-01T02:35:11;10.50;;;7.40;;
239;SDS011;104;53.590;10.004;2023-02-01T02:37:46;10.20;;;7.23;;
239;SDS011;104;53.590;10.004;2023-02-01T02:40:21;12.77;;;6.93;;
239;SDS011;104;53.590;10.004;2023-02-01T02:42:56;10.57;;;7.50;;
239;SDS011;104;53.590;10.004;2023-02-01T02:45:47;11.17;;;7.13;;
239;SDS011;104;53.590;10.004;2023-02-01T02:48:35;14.57;;;7.73;;
239;SDS011;104;53.590;10.004;2023-02-01T02:51:07;11.03;;;7.30;;
239;SDS011;104;53.590;10.004;2023-02-01T02:53:57;10.70;;;7.00;;
239;SDS011;104;53.590;10.004;2023-02-01T02:56:45;11.60;;;7.23;;
239;SDS011;104;53.590;10.004;2023-02-01T02:59:32;10.70;;;6.27;;
239;SDS011;104;53.590;10.004;2023-02-01T03:02:18;10.70;;;6.60;;
239;SDS011;104;53.590;10.004;2023-02-01T03:05:04;9.90;;;6.80;;
239;SDS011;104;53.590;10.004;2023-02-01T03:10:33;12.70;;;7.47;;
239;SDS011;104;53.590;10.004;2023-02-01T03:13:08;12.67;;;6.40;;
239;SDS011;104;53.590;10.004;2023-02-01T03:15:38;11.37;;;6.53;;
239;SDS011;104;53.590;10.004;2023-02-01T03:18:11;9.33;;;6.63;;
239;SDS011;104;53.590;10.004;2023-02-01T03:20:42;14.20;;;7.30;;
239;SDS011;104;53.590;10.004;2023-02-01T03:23:15;10.63;;;6.30;;
239;SDS011;104;53.590;10.004;2023-02-01T03:25:46;12.43;;;7.00;;
239;SDS011;104;53.590;10.004;2023-02-01T03:28:15;13.13;;;6.93;;
239;SDS011;104;53.590;10.004;2023-02-01T03:30:46;9.00;;;6.33;;
239;SDS011;104;53.590;10.004;2023-02-01T03:33:15;10.13;;;6.60;;
239;SDS011;104;53.590;10.004;2023-02-01T03:35:48;10.60;;;6.97;;
239;SDS011;104;53.590;10.004;2023-02-01T03:38:22;11.10;;;6.30;;
239;SDS011;104;53.590;10.004;2023-02-01T03:40:53;10.20;;;7.03;;
239;SDS011;104;53.590;10.004;2023-02-01T03:43:24;10.77;;;6.87;;
239;SDS011;104;53.590;10.004;2023-02-01T03:45:57;9.80;;;6.13;;
239;SDS011;104;53.590;10.004;2023-02-01T03:48:25;9.23;;;6.30;;
239;SDS011;104;53.590;10.004;2023-02-01T03:50:56;12.10;;;6.57;;
239;SDS011;104;53.590;10.004;2023-02-01T03:53:26;9.60;;;6.60;;
239;SDS011;104;53.590;10.004;2023-02-01T03:55:54;8.60;;;6.43;;
239;SDS011;104;53.590;10.004;2023-02-01T03:58:22;10.73;;;6.60;;
239;SDS011;104;53.590;10.004;2023-02-01T04:00:50;11.10;;;5.97;;
239;SDS011;104;53.590;10.004;2023-02-01T04:03:19;11.03;;;6.17;;
239;SDS011;104;53.590;10.004;2023-02-01T04:05:48;9.57;;;6.23;;
239;SDS011;104;53.590;10.004;2023-02-01T04:08:15;11.57;;;6.53;;
239;SDS011;104;53.590;10.004;2023-02-01T04:10:43;12.70;;;5.80;;
239;SDS011;104;53.590;10.004;2023-02-01T04:13:11;11.43;;;6.90;;
239;SDS011;104;53.590;10.004;2023-02-01T04:15:38;10.60;;;6.40;;
239;SDS011;104;53.590;10.004;2023-02-01T04:18:05;9.93;;;6.37;;
239;SDS011;104;53.590;10.004;2023-02-01T04:20:32;10.53;;;6.30;;
239;SDS011;104;53.590;10.004;2023-02-01T04:22:59;8.33;;;5.90;;
239;SDS011;104;53.590;10.004;2023-02-01T04:25:28;7.60;;;5.50;;
239;SDS011;104;53.590;10.004;2023-02-01T04:27:56;8.23;;;5.60;;
239;SDS011;104;53.590;10.004;2023-02-01T04:30:24;8.97;;;6.10;;
239;SDS011;104;53.590;10.004;2023-02-01T04:32:51;10.80;;;5.90;;
239;SDS011;104;53.590;10.004;2023-02-01T04:35:18;9.83;;;6.90;;
239;SDS011;104;53.590;10.004;2023-02-01T04:37:45;12.27;;;5.13;;
239;SDS011;104;53.590;10.004;2023-02-01T04:40:12;9.10;;;5.30;;
239;SDS011;104;53.590;10.004;2023-02-01T04:42:39;9.43;;;5.60;;
239;SDS011;104;53.590;10.004;2023-02-01T04:45:08;8.27;;;5.67;;
239;SDS011;104;53.590;10.004;2023-02-01T04:47:35;11.00;;;5.00;;
239;SDS011;104;53.590;10.004;2023-02-01T04:50:02;8.93;;;5.60;;
239;SDS011;104;53.590;10.004;2023-02-01T04:52:30;8.50;;;5.27;;
239;SDS011;104;53.590;10.004;2023-02-01T04:54:57;5.83;;;4.83;;
239;SDS011;104;53.590;10.004;2023-02-01T04:57:27;7.00;;;4.93;;
239;SDS011;104;53.590;10.004;2023-02-01T04:59:53;7.90;;;5.17;;
239;SDS011;104;53.590;10.004;2023-02-01T05:02:22;10.73;;;5.73;;
239;SDS011;104;53.590;10.004;2023-02-01T05:04:49;7.70;;;5.10;;
239;SDS011;104;53.590;10.004;2023-02-01T05:07:16;8.80;;;5.87;;
239;SDS011;104;53.590;10.004;2023-02-01T05:09:43;11.60;;;5.87;;
239;SDS011;104;53.590;10.004;2023-02-01T05:12:11;7.70;;;5.33;;
239;SDS011;104;53.590;10.004;2023-02-01T05:14:55;7.20;;;5.10;;
239;SDS011;104;53.590;10.004;2023-02-01T05:17:24;7.60;;;5.00;;
239;SDS011;104;53.590;10.004;2023-02-01T05:19:51;8.43;;;5.23;;
239;SDS011;104;53.590;10.004;2023-02-01T05:22:18;8.57;;;5.30;;
239;SDS011;104;53.590;10.004;2023-02-01T05:24:46;7.23;;;5.13;;
239;SDS011;104;53.590;10.004;2023-02-01T05:27:13;9.70;;;4.80;;
239;SDS011;104;53.590;10.004;2023-02-01T05:29:40;6.10;;;4.30;;
239;SDS011;104;53.590;10.004;2023-02-01T05:32:09;7.00;;;4.97;;
239;SDS011;104;53.590;10.004;2023-02-01T05:34:37;6.90;;;4.83;;
239;SDS011;104;53.590;10.004;2023-02-01T05:37:04;5.63;;;4.40;;
239;SDS011;104;53.590;10.004;2023-02-01T05:39:31;6.50;;;4.90;;
239;SDS011;104;53.590;10.004;2023-02-01T05:41:58;9.70;;;4.67;;
239;SDS011;104;53.590;10.004;2023-02-01T05:44:26;7.80;;;4.80;;
239;SDS011;104;53.590;10.004;2023-02-01T05:46:53;8.07;;;5.33;;
239;SDS011;104;53.590;10.004;2023-02-01T05:49:20;8.80;;;5.00;;
239;SDS011;104;53.590;10.004;2023-02-01T05:51:49;8.90;;;5.20;;
239;SDS011;104;53.590;10.004;2023-02-01T05:54:16;7.80;;;4.77;;
239;SDS011;104;53.590;10.004;2023-02-01T05:56:43;6.73;;;4.70;;
239;SDS011;104;53.590;10.004;2023-02-01T05:59:10;8.30;;;5.40;;
239;SDS011;104;53.590;10.004;2023-02-01T06:01:38;7.00;;;4.80;;
239;SDS011;104;53.590;10.004;2023-02-01T06:04:05;9.53;;;4.93;;
239;SDS011;104;53.590;10.004;2023-02-01T06:06:32;7.17;;;4.57;;
239;SDS011;104;53.590;10.004;2023-02-01T06:09:01;8.80;;;4.90;;
239;SDS011;104;53.590;10.004;2023-02-01T06:11:28;6.80;;;4.87;;
239;SDS011;104;53.590;10.004;2023-02-01T06:13:55;8.53;;;4.37;;
239;SDS011;104;53.590;10.004;2023-02-01T06:16:22;5.33;;;4.23;;
239;SDS011;104;53.590;10.004;2023-02-01T06:18:50;8.93;;;4.93;;
239;SDS011;104;53.590;10.004;2023-02-01T06:21:17;9.73;;;4.60;;
239;SDS011;104;53.590;10.004;2023-02-01T06:23:48;6.00;;;4.83;;
239;SDS011;104;53.590;10.004;2023-02-01T06:26:17;5.77;;;5.03;;
239;SDS011;104;53.590;10.004;2023-02-01T06:28:45;7.40;;;4.90;;
239;SDS011;104;53.590;10.004;2023-02-01T06:31:12;13.00;;;5.03;;
239;SDS011;104;53.590;10.004;2023-02-01T06:33:39;9.53;;;4.90;;
239;SDS011;104;53.590;10.004;2023-02-01T06:36:07;7.10;;;4.90;;
239;SDS011;104;53.590;10.004;2023-02-01T06:38:35;7.07;;;4.70;;
239;SDS011;104;53.590;10.004;2023-02-01T06:41:03;5.93;;;4.30;;
239;SDS011;104;53.590;10.004;2023-02-01T06:43:32;8.40;;;5.10;;
239;SDS011;104;53.590;10.004;2023-02-01T06:46:00;9.87;;;5.20;;
239;SDS011;104;53.590;10.004;2023-02-01T06:48:28;6.00;;;4.60;;
239;SDS011;104;53.590;10.004;2023-02-01T06:50:55;5.50;;;4.77;;
239;SDS011;104;53.590;10.004;2023-02-01T06:53:23;7.70;;;5.20;;
239;SDS011;104;53.590;10.004;2023-02-01T06:55:53;9.17;;;5.30;;
239;SDS011;104;53.590;10.004;2023-02-01T06:58:20;5.73;;;4.80;;
239;SDS011;104;53.590;10.004;2023-02-01T07:00:52;6.20;;;4.90;;
239;SDS011;104;53.590;10.004;2023-02-01T07:03:20;8.17;;;4.70;;
239;SDS011;104;53.590;10.004;2023-02-01T07:05:47;7.43;;;5.40;;
239;SDS011;104;53.590;10.004;2023-02-01T07:08:14;10.50;;;5.30;;
239;SDS011;104;53.590;10.004;2023-02-01T07:10:42;5.17;;;4.50;;
239;SDS011;104;53.590;10.004;2023-02-01T07:13:09;6.67;;;5.00;;
239;SDS011;104;53.590;10.004;2023-02-01T07:15:36;7.10;;;4.70;;
239;SDS011;104;53.590;10.004;2023-02-01T07:18:05;9.83;;;4.70;;
239;SDS011;104;53.590;10.004;2023-02-01T07:20:32;7.40;;;5.30;;
239;SDS011;104;53.590;10.004;2023-02-01T07:23:00;8.47;;;4.80;;
239;SDS011;104;53.590;10.004;2023-02-01T07:25:28;7.57;;;5.53;;
239;SDS011;104;53.590;10.004;2023-02-01T07:27:55;9.80;;;5.60;;
239;SDS011;104;53.590;10.004;2023-02-01T07:30:22;8.07;;;4.70;;
239;SDS011;104;53.590;10.004;2023-02-01T07:32:54;10.20;;;4.80;;
239;SDS011;104;53.590;10.004;2023-02-01T07:35:28;11.30;;;4.20;;
239;SDS011;104;53.590;10.004;2023-02-01T07:37:56;8.60;;;5.00;;
239;SDS011;104;53.590;10.004;2023-02-01T07:40:25;8.40;;;5.33;;
239;SDS011;104;53.590;10.004;2023-02-01T07:42:53;8.73;;;5.20;;
239;SDS011;104;53.590;10.004;2023-02-01T07:45:21;9.07;;;5.10;;
239;SDS011;104;53.590;10.004;2023-02-01T07:47:51;10.53;;;5.33;;
239;SDS011;104;53.590;10.004;2023-02-01T07:50:20;9.80;;;5.57;;
239;SDS011;104;53.590;10.004;2023-02-01T07:52:51;9.60;;;5.70;;
239;SDS011;104;53.590;10.004;2023-02-01T07:55:19;10.33;;;6.00;;
239;SDS011;104;53.590;10.004;2023-02-01T07:57:47;13.30;;;6.27;;
239;SDS011;104;53.590;10.004;2023-02-01T08:00:18;10.57;;;6.30;;
239;SDS011;104;53.590;10.004;2023-02-01T08:03:03;8.00;;;5.67;;
239;SDS011;104;53.590;10.004;2023-02-01T08:05:31;8.47;;;6.07;;
239;SDS011;104;53.590;10.004;2023-02-01T08:08:00;8.13;;;5.97;;
239;SDS011;104;53.590;10.004;2023-02-01T08:10:28;8.50;;;5.63;;
239;SDS011;104;53.590;10.004;2023-02-01T08:12:57;44.07;;;8.40;;
239;SDS011;104;53.590;10.004;2023-02-01T08:15:25;15.90;;;6.27;;
239;SDS011;104;53.590;10.004;2023-02-01T08:17:52;7.10;;;5.40;;
239;SDS011;104;53.590;10.004;2023-02-01T08:20:20;7.47;;;5.20;;
239;SDS011;104;53.590;10.004;2023-02-01T08:22:49;9.57;;;5.33;;
239;SDS011;104;53.590;10.004;2023-02-01T08:25:17;11.33;;;6.03;;
239;SDS011;104;53.590;10.004;2023-02-01T08:27:46;7.03;;;5.27;;
239;SDS011;104;53.590;10.004;2023-02-01T08:30:13;8.20;;;5.20;;
239;SDS011;104;53.590;10.004;2023-02-01T08:32:41;8.80;;;5.97;;
239;SDS011;104;53.590;10.004;2023-02-01T08:35:09;6.97;;;5.27;;
239;SDS011;104;53.590;10.004;2023-02-01T08:37:36;7.73;;;4.80;;
239;SDS011;104;53.590;10.004;2023-02-01T08:40:04;8.73;;;5.30;;
239;SDS011;104;53.590;10.004;2023-02-01T08:42:33;6.10;;;4.73;;
239;SDS011;104;53.590;10.004;2023-02-01T08:45:19;8.10;;;4.90;;
239;SDS011;104;53.590;10.004;2023-02-01T08:47:48;5.70;;;4.63;;
239;SDS011;104;53.590;10.004;2023-02-01T08:50:16;7.43;;;4.67;;
239;SDS011;104;53.590;10.004;2023-02-01T08:52:43;7.83;;;4.30;;
239;SDS011;104;53.590;10.004;2023-02-01T08:55:11;9.63;;;5.30;;
239;SDS011;104;53.590;10.004;2023-02-01T08:57:40;6.30;;;4.40;;
239;SDS011;104;53.590;10.004;2023-02-01T09:00:08;6.00;;;4.00;;
239;SDS011;104;53.590;10.004;2023-02-01T09:02:37;4.90;;;4.10;;
239;SDS011;104;53.590;10.004;2023-02-01T09:05:04;5.43;;;3.57;;
239;SDS011;104;53.590;10.004;2023-02-01T09:07:33;6.27;;;3.90;;
239;SDS011;104;53.590;10.004;2023-02-01T09:10:00;4.90;;;3.70;;
239;SDS011;104;53.590;10.004;2023-02-01T09:12:27;5.30;;;3.13;;
239;SDS011;104;53.590;10.004;2023-02-01T09:14:57;4.93;;;3.70;;
239;SDS011;104;53.590;10.004;2023-02-01T09:17:25;4.87;;;3.80;;
239;SDS011;104;53.590;10.004;2023-02-01T09:19:52;8.37;;;3.17;;
239;SDS011;104;53.590;10.004;2023-02-01T09:22:19;5.60;;;3.77;;
239;SDS011;104;53.590;10.004;2023-02-01T09:24:46;7.53;;;3.00;;
239;SDS011;104;53.590;10.004;2023-02-01T09:27:13;6.93;;;3.50;;
239;SDS011;104;53.590;10.004;2023-02-01T09:29:41;5.50;;;3.43;;
239;SDS011;104;53.590;10.004;2023-02-01T09:32:09;5.97;;;3.43;;
239;SDS011;104;53.590;10.004;2023-02-01T09:34:36;5.93;;;3.40;;
239;SDS011;104;53.590;10.004;2023-02-01T09:37:04;4.80;;;3.30;;
239;SDS011;104;53.590;10.004;2023-02-01T09:39:31;6.10;;;3.73;;
239;SDS011;104;53.590;10.004;2023-02-01T09:42:00;10.33;;;3.80;;
239;SDS011;104;53.590;10.004;2023-02-01T09:44:37;4.10;;;3.50;;
239;SDS011;104;53.590;10.004;2023-02-01T09:47:26;4.93;;;3.80;;
239;SDS011;104;53.590;10.004;2023-02-01T09:49:55;7.00;;;3.63;;
239;SDS011;104;53.590;10.004;2023-02-01T09:52:24;8.17;;;4.10;;
239;SDS011;104;53.590;10.004;2023-02-01T09:54:54;4.57;;;3.67;;
239;SDS011;104;53.590;10.004;2023-02-01T09:57:27;6.70;;;3.80;;
239;SDS011;104;53.590;10.004;2023-02-01T10:00:00;6.83;;;3.90;;
239;SDS011;104;53.590;10.004;2023-02-01T10:02:32;9.20;;;3.60;;
239;SDS011;104;53.590;10.004;2023-02-01T10:05:01;5.03;;;4.00;;
239;SDS011;104;53.590;10.004;2023-02-01T10:07:30;7.70;;;4.67;;
239;SDS011;104;53.590;10.004;2023-02-01T10:10:07;9.20;;;4.63;;
239;SDS011;104;53.590;10.004;2023-02-01T10:12:58;8.93;;;4.53;;
239;SDS011;104;53.590;10.004;2023-02-01T10:15:35;8.60;;;5.53;;
239;SDS011;104;53.590;10.004;2023-02-01T10:18:10;8.57;;;5.10;;
239;SDS011;104;53.590;10.004;2023-02-01T10:20:52;10.57;;;5.93;;
239;SDS011;104;53.590;10.004;2023-02-01T10:23:31;8.57;;;5.37;;
239;SDS011;104;53.590;10.004;2023-02-01T10:26:18;9.03;;;5.70;;
239;SDS011;104;53.590;10.004;2023-02-01T10:28:46;12.47;;;6.13;;
239;SDS011;104;53.590;10.004;2023-02-01T10:31:16;9.90;;;5.60;;
239;SDS011;104;53.590;10.004;2023-02-01T10:33:47;7.57;;;5.23;;
239;SDS011;104;53.590;10.004;2023-02-01T10:36:16;8.70;;;5.60;;
239;SDS011;104;53.590;10.004;2023-02-01T10:38:46;9.50;;;5.80;;
239;SDS011;104;53.590;10.004;2023-02-01T10:41:15;14.77;;;6.03;;
239;SDS011;104;53.590;10.004;2023-02-01T10:43:42;16.00;;;5.80;;
239;SDS011;104;53.590;10.004;2023-02-01T10:46:12;8.53;;;5.47;;
239;SDS011;104;53.590;10.004;2023-02-01T10:48:39;7.63;;;5.20;;
239;SDS011;104;53.590;10.004;2023-02-01T10:51:10;11.83;;;5.40;;
239;SDS011;104;53.590;10.004;2023-02-01T10:53:41;10.57;;;5.03;;
239;SDS011;104;53.590;10.004;2023-02-01T10:56:12;10.27;;;5.20;;
239;SDS011;104;53.590;10.004;2023-02-01T10:58:43;9.73;;;5.20;;
239;SDS011;104;53.590;10.004;2023-02-01T11:01:15;18.10;;;6.33;;
239;SDS011;104;53.590;10.004;2023-02-01T11:03:43;6.60;;;4.67;;
239;SDS011;104;53.590;10.004;2023-02-01T11:06:16;11.40;;;5.07;;
239;SDS011;104;53.590;10.004;2023-02-01T11:08:45;5.97;;;2.97;;
239;SDS011;104;53.590;10.004;2023-02-01T11:11:13;11.30;;;4.20;;
239;SDS011;104;53.590;10.004;2023-02-01T11:13:40;11.27;;;5.27;;
239;SDS011;104;53.590;10.004;2023-02-01T11:16:10;10.30;;;4.30;;
239;SDS011;104;53.590;10.004;2023-02-01T11:18:39;11.67;;;4.83;;
239;SDS011;104;53.590;10.004;2023-02-01T11:21:06;11.07;;;5.20;;
239;SDS011;104;53.590;10.004;2023-02-01T11:23:39;9.13;;;4.67;;
239;SDS011;104;53.590;10.004;2023-02-01T11:26:10;9.97;;;4.30;;
239;SDS011;104;53.590;10.004;2023-02-01T11:28:40;15.20;;;5.60;;
239;SDS011;104;53.590;10.004;2023-02-01T11:31:08;11.23;;;5.80;;
239;SDS011;104;53.590;10.004;2023-02-01T11:33:36;11.50;;;5.10;;
239;SDS011;104;53.590;10.004;2023-02-01T11:36:06;14.07;;;5.10;;
239;SDS011;104;53.590;10.004;2023-02-01T11:38:34;16.23;;;4.73;;
239;SDS011;104;53.590;10.004;2023-02-01T11:41:13;14.10;;;4.70;;
239;SDS011;104;53.590;10.004;2023-02-01T11:43:50;14.80;;;4.53;;
239;SDS011;104;53.590;10.004;2023-02-01T11:46:18;8.80;;;5.10;;
239;SDS011;104;53.590;10.004;2023-02-01T11:48:50;9.37;;;4.80;;
239;SDS011;104;53.590;10.004;2023-02-01T11:51:21;15.20;;;5.00;;
239;SDS011;104;53.590;10.004;2023-02-01T11:54:07;11.73;;;5.07;;
239;SDS011;104;53.590;10.004;2023-02-01T11:56:40;13.27;;;5.23;;
239;SDS011;104;53.590;10.004;2023-02-01T11:59:21;13.07;;;4.80;;
239;SDS011;104;53.590;10.004;2023-02-01T12:04:59;13.00;;;4.97;;
239;SDS011;104;53.590;10.004;2023-02-01T12:07:49;9.37;;;4.77;;
239;SDS011;104;53.590;10.004;2023-02-01T12:10:37;10.13;;;5.20;;
239;SDS011;104;53.590;10.004;2023-02-01T12:13:14;10.93;;;4.80;;
239;SDS011;104;53.590;10.004;2023-02-01T12:15:56;13.10;;;5.37;;
239;SDS011;104;53.590;10.004;2023-02-01T12:21:22;12.03;;;4.67;;
239;SDS011;104;53.590;10.004;2023-02-01T12:23:59;10.30;;;4.63;;
239;SDS011;104;53.590;10.004;2023-02-01T12:26:48;8.50;;;4.47;;
239;SDS011;104;53.590;10.004;2023-02-01T12:29:22;10.23;;;4.40;;
239;SDS011;104;53.590;10.004;2023-02-01T12:32:04;10.80;;;5.00;;
239;SDS011;104;53.590;10.004;2023-02-01T12:34:53;17.80;;;4.37;;
239;SDS011;104;53.590;10.004;2023-02-01T12:37:48;12.87;;;4.40;;
239;SDS011;104;53.590;10.004;2023-02-01T12:40:35;8.07;;;4.47;;
239;SDS011;104;53.590;10.004;2023-02-01T12:43:08;8.47;;;4.73;;
239;SDS011;104;53.590;10.004;2023-02-01T12:45:45;21.07;;;5.33;;
239;SDS011;104;53.590;10.004;2023-02-01T12:48:22;13.20;;;4.90;;
239;SDS011;104;53.590;10.004;2023-02-01T12:50:52;9.03;;;5.07;;
239;SDS011;104;53.590;10.004;2023-02-01T12:53:25;10.50;;;4.30;;
239;SDS011;104;53.590;10.004;2023-02-01T12:56:00;5.13;;;4.10;;
239;SDS011;104;53.590;10.004;2023-02-01T12:58:35;10.00;;;4.60;;
239;SDS011;104;53.590;10.004;2023-02-01T13:01:09;12.20;;;5.43;;
239;SDS011;104;53.590;10.004;2023-02-01T13:03:41;11.30;;;5.27;;
239;SDS011;104;53.590;10.004;2023-02-01T13:06:15;11.50;;;5.47;;
239;SDS011;104;53.590;10.004;2023-02-01T13:08:45;9.57;;;4.80;;
239;SDS011;104;53.590;10.004;2023-02-01T13:11:22;10.80;;;5.10;;
239;SDS011;104;53.590;10.004;2023-02-01T13:13:56;9.20;;;5.23;;
239;SDS011;104;53.590;10.004;2023-02-01T13:16:28;11.63;;;5.27;;
239;SDS011;104;53.590;10.004;2023-02-01T13:18:59;16.37;;;5.47;;
239;SDS011;104;53.590;10.004;2023-02-01T13:21:32;16.40;;;6.80;;
239;SDS011;104;53.590;10.004;2023-02-01T13:24:01;14.53;;;5.53;;
239;SDS011;104;53.590;10.004;2023-02-01T13:26:29;11.90;;;5.50;;
239;SDS011;104;53.590;10.004;2023-02-01T13:28:56;10.10;;;6.00;;
239;SDS011;104;53.590;10.004;2023-02-01T13:31:31;20.77;;;7.07;;
239;SDS011;104;53.590;10.004;2023-02-01T13:34:25;15.97;;;6.60;;
239;SDS011;104;53.590;10.004;2023-02-01T13:36:58;10.77;;;6.23;;
239;SDS011;104;53.590;10.004;2023-02-01T13:39:35;8.63;;;5.37;;
239;SDS011;104;53.590;10.004;2023-02-01T13:42:13;10.13;;;5.30;;
239;SDS011;104;53.590;10.004;2023-02-01T13:44:44;13.63;;;6.10;;
239;SDS011;104;53.590;10.004;2023-02-01T13:47:18;21.47;;;6.40;;
239;SDS011;104;53.590;10.004;2023-02-01T13:49:48;18.33;;;6.33;;
239;SDS011;104;53.590;10.004;2023-02-01T13:52:22;19.27;;;5.93;;
239;SDS011;104;53.590;10.004;2023-02-01T13:55:01;9.43;;;4.30;;
239;SDS011;104;53.590;10.004;2023-02-01T13:57:35;11.30;;;4.30;;
239;SDS011;104;53.590;10.004;2023-02-01T14:00:08;10.73;;;4.70;;
239;SDS011;104;53.590;10.004;2023-02-01T14:03:10;12.60;;;4.50;;
239;SDS011;104;53.590;10.004;2023-02-01T14:05:54;10.10;;;4.63;;
239;SDS011;104;53.590;10.004;2023-02-01T14:08:41;14.80;;;4.60;;
239;SDS011;104;53.590;10.004;2023-02-01T14:11:33;20.60;;;5.23;;
239;SDS011;104;53.590;10.004;2023-02-01T14:23:29;10.27;;;4.43;;
239;SDS011;104;53.590;10.004;2023-02-01T14:26:03;9.63;;;4.43;;
239;SDS011;104;53.590;10.004;2023-02-01T14:28:32;6.50;;;3.80;;
239;SDS011;104;53.590;10.004;2023-02-01T14:31:12;11.63;;;3.93;;
239;SDS011;104;53.590;10.004;2023-02-01T14:33:48;9.37;;;4.60;;
239;SDS011;104;53.590;10.004;2023-02-01T14:36:21;18.10;;;4.80;;
239;SDS011;104;53.590;10.004;2023-02-01T14:38:50;13.30;;;5.03;;
239;SDS011;104;53.590;10.004;2023-02-01T14:41:24;8.87;;;3.97;;
239;SDS011;104;53.590;10.004;2023-02-01T14:44:22;12.50;;;4.60;;
239;SDS011;104;53.590;10.004;2023-02-01T14:47:06;17.33;;;4.97;;
239;SDS011;104;53.590;10.004;2023-02-01T14:49:50;22.60;;;4.80;;
239;SDS011;104;53.590;10.004;2023-02-01T14:52:22;6.73;;;3.83;;
239;SDS011;104;53.590;10.004;2023-02-01T14:55:01;18.73;;;5.83;;
239;SDS011;104;53.590;10.004;2023-02-01T14:57:32;15.30;;;4.20;;
239;SDS011;104;53.590;10.004;2023-02-01T15:00:06;10.77;;;4.40;;
239;SDS011;104;53.590;10.004;2023-02-01T15:02:42;14.03;;;5.00;;
239;SDS011;104;53.590;10.004;2023-02-01T15:05:23;14.10;;;4.40;;
239;SDS011;104;53.590;10.004;2023-02-01T15:08:12;12.17;;;3.90;;
239;SDS011;104;53.590;10.004;2023-02-01T15:10:44;10.97;;;4.60;;
239;SDS011;104;53.590;10.004;2023-02-01T15:13:20;14.67;;;4.23;;
239;SDS011;104;53.590;10.004;2023-02-01T15:16:02;9.30;;;3.60;;
239;SDS011;104;53.590;10.004;2023-02-01T15:18:31;14.07;;;5.63;;
239;SDS011;104;53.590;10.004;2023-02-01T15:20:59;10.63;;;4.60;;
239;SDS011;104;53.590;10.004;2023-02-01T15:23:27;9.97;;;4.70;;
239;SDS011;104;53.590;10.004;2023-02-01T15:25:56;15.37;;;6.23;;
239;SDS011;104;53.590;10.004;2023-02-01T15:28:24;13.83;;;4.57;;
239;SDS011;104;53.590;10.004;2023-02-01T15:30:52;13.07;;;4.33;;
239;SDS011;104;53.590;10.004;2023-02-01T15:33:24;9.80;;;3.47;;
239;SDS011;104;53.590;10.004;2023-02-01T15:35:52;9.53;;;4.60;;
239;SDS011;104;53.590;10.004;2023-02-01T15:38:34;15.83;;;5.33;;
239;SDS011;104;53.590;10.004;2023-02-01T15:41:04;22.20;;;5.27;;
239;SDS011;104;53.590;10.004;2023-02-01T15:43:35;22.50;;;5.33;;
239;SDS011;104;53.590;10.004;2023-02-01T15:46:07;10.80;;;4.50;;
239;SDS011;104;53.590;10.004;2023-02-01T15:48:36;11.33;;;4.17;;
239;SDS011;104;53.590;10.004;2023-02-01T15:51:06;10.17;;;5.30;;
239;SDS011;104;53.590;10.004;2023-02-01T15:53:38;14.83;;;4.80;;
239;SDS011;104;53.590;10.004;2023-02-01T15:56:12;7.60;;;4.30;;
239;SDS011;104;53.590;10.004;2023-02-01T15:58:43;9.20;;;4.27;;
239;SDS011;104;53.590;10.004;2023-02-01T16:01:13;11.53;;;4.40;;
239;SDS011;104;53.590;10.004;2023-02-01T16:03:42;14.13;;;4.23;;
239;SDS011;104;53.590;10.004;2023-02-01T16:06:10;11.50;;;4.80;;
239;SDS011;104;53.590;10.004;2023-02-01T16:08:48;9.93;;;4.60;;
239;SDS011;104;53.590;10.004;2023-02-01T16:11:24;9.80;;;3.80;;
239;SDS011;104;53.590;10.004;2023-02-01T16:13:55;15.03;;;4.43;;
239;SDS011;104;53.590;10.004;2023-02-01T16:16:30;14.33;;;4.37;;